ESPE

Vidsel Air Base Airport

Vidsel, Sweden
METAR ESPE 201220Z AUTO 00000KT 1000 0900// R11/0900V1900U R29/0900V1900N -SN OVC005/// M14/M16 Q1011 RESN
Observed Flight Rules
Jan-20 @ 12:20 UTC (51 minutes ago) Instrument Flight Rules
Wind Visibility Clouds Conditions
Calm 998 meters
  • Overcast at 500' AGL
  • Light Snow
Temperatures Readings
Current -14°C / 7°F
Dewpoint -16°C / 3°F
Humidity 85%
Altimeter 29.85" Hg
Pressure 1011 hPa
Elevation 182
METAR ESPE 201220Z AUTO 00000KT 1000 0900// R11/0900V1900U R29/0900V1900N -SN OVC005/// M14/M16 Q1011 RESN
Observed Flight Rules
Jan-20 @ 12:20 UTC
(51 minutes ago)
LIFR
Wind Visibility
Calm 998 meters
Clouds
  • Overcast at 500' AGL
Conditions
  • Light Snow
Temperature Dewpoint
-14°C / 7°F -16°C / 3°F
Humidity Altimeter Pressure
85% 29.85" Hg 1011 hPa